KGYL

Glencoe Municipal Airport

Glencoe, Minnesota, USA
METAR KGYL 191515Z AUTO 15005KT 7SM CLR 24/20 A2994 RMK AO2 T02420195
Observed Flight Rules
Aug-19 @ 15:15 UTC (23 minutes ago) Visual Flight Rules
Wind Visibility Clouds
150° at 5 knots 7 miles
  • Clear skies
Temperatures Readings
Current 24°C / 75°F
Dewpoint 20°C / 68°F
Humidity 78%
Altimeter 29.94" Hg
Pressure 1014 hPa
Elevation 302
METAR KGYL 191515Z AUTO 15005KT 7SM CLR 24/20 A2994 RMK AO2 T02420195
Observed Flight Rules
Aug-19 @ 15:15 UTC
(23 minutes ago)
VFR
Wind Visibility
150° at 5 knots 7 miles
Clouds
  • Clear skies
Temperature Dewpoint
24°C / 75°F 20°C / 68°F
Humidity Altimeter Pressure
78% 29.94" Hg 1014 hPa